sensor_id;sensor_type;location;lat;lon;timestamp;P1;durP1;ratioP1;P2;durP2;ratioP2
42200;SDS011;27869;51.442;7.540;2024-03-23T00:55:50;19.20;;;2.58;;
42200;SDS011;27869;51.442;7.540;2024-03-23T00:58:16;16.88;;;2.42;;
42200;SDS011;27869;51.442;7.540;2024-03-23T01:00:43;17.98;;;2.88;;
42200;SDS011;27869;51.442;7.540;2024-03-23T01:03:09;15.60;;;2.88;;
42200;SDS011;27869;51.442;7.540;2024-03-23T01:05:36;15.38;;;2.65;;
42200;SDS011;27869;51.442;7.540;2024-03-23T01:08:02;16.55;;;2.33;;
42200;SDS011;27869;51.442;7.540;2024-03-23T01:10:30;14.15;;;3.00;;
42200;SDS011;27869;51.442;7.540;2024-03-23T01:12:59;15.70;;;2.33;;
42200;SDS011;27869;51.442;7.540;2024-03-23T01:15:26;13.73;;;2.00;;
42200;SDS011;27869;51.442;7.540;2024-03-23T01:17:52;11.52;;;2.00;;
42200;SDS011;27869;51.442;7.540;2024-03-23T01:20:19;14.18;;;2.22;;
42200;SDS011;27869;51.442;7.540;2024-03-23T01:22:44;12.98;;;2.13;;
42200;SDS011;27869;51.442;7.540;2024-03-23T01:25:11;12.18;;;2.13;;
42200;SDS011;27869;51.442;7.540;2024-03-23T01:27:39;14.30;;;1.95;;
42200;SDS011;27869;51.442;7.540;2024-03-23T01:30:06;12.38;;;1.90;;
42200;SDS011;27869;51.442;7.540;2024-03-23T01:32:32;15.23;;;2.05;;
42200;SDS011;27869;51.442;7.540;2024-03-23T01:34:59;15.93;;;2.00;;
42200;SDS011;27869;51.442;7.540;2024-03-23T01:37:25;16.95;;;2.53;;
42200;SDS011;27869;51.442;7.540;2024-03-23T01:39:52;14.02;;;2.28;;
42200;SDS011;27869;51.442;7.540;2024-03-23T01:42:18;11.10;;;2.10;;
42200;SDS011;27869;51.442;7.540;2024-03-23T01:44:47;14.93;;;2.45;;
42200;SDS011;27869;51.442;7.540;2024-03-23T01:47:13;13.85;;;2.53;;
42200;SDS011;27869;51.442;7.540;2024-03-23T01:49:40;17.58;;;2.38;;
42200;SDS011;27869;51.442;7.540;2024-03-23T01:52:06;13.73;;;2.42;;
42200;SDS011;27869;51.442;7.540;2024-03-23T01:54:33;14.52;;;2.47;;
42200;SDS011;27869;51.442;7.540;2024-03-23T01:57:00;14.00;;;1.75;;
42200;SDS011;27869;51.442;7.540;2024-03-23T01:59:27;15.52;;;2.05;;
42200;SDS011;27869;51.442;7.540;2024-03-23T02:01:54;11.15;;;1.73;;
42200;SDS011;27869;51.442;7.540;2024-03-23T02:04:21;11.27;;;1.83;;
42200;SDS011;27869;51.442;7.540;2024-03-23T02:06:47;11.88;;;1.77;;
42200;SDS011;27869;51.442;7.540;2024-03-23T02:09:14;10.52;;;1.60;;
42200;SDS011;27869;51.442;7.540;2024-03-23T02:11:40;11.60;;;1.70;;
42200;SDS011;27869;51.442;7.540;2024-03-23T02:14:07;7.47;;;1.05;;
42200;SDS011;27869;51.442;7.540;2024-03-23T02:16:33;7.75;;;1.17;;
42200;SDS011;27869;51.442;7.540;2024-03-23T02:19:01;13.05;;;1.90;;
42200;SDS011;27869;51.442;7.540;2024-03-23T02:21:27;13.13;;;1.90;;
42200;SDS011;27869;51.442;7.540;2024-03-23T02:28:51;8.63;;;1.27;;
42200;SDS011;27869;51.442;7.540;2024-03-23T02:31:17;11.23;;;1.40;;
42200;SDS011;27869;51.442;7.540;2024-03-23T02:33:44;10.85;;;1.38;;
42200;SDS011;27869;51.442;7.540;2024-03-23T02:36:10;12.35;;;1.38;;
42200;SDS011;27869;51.442;7.540;2024-03-23T02:38:37;10.60;;;1.35;;
42200;SDS011;27869;51.442;7.540;2024-03-23T02:41:04;9.13;;;1.55;;
42200;SDS011;27869;51.442;7.540;2024-03-23T02:43:31;5.65;;;1.02;;
42200;SDS011;27869;51.442;7.540;2024-03-23T02:45:57;6.40;;;1.20;;
42200;SDS011;27869;51.442;7.540;2024-03-23T02:48:26;5.90;;;1.13;;
42200;SDS011;27869;51.442;7.540;2024-03-23T02:50:51;8.20;;;1.25;;
42200;SDS011;27869;51.442;7.540;2024-03-23T02:53:19;6.78;;;1.20;;
42200;SDS011;27869;51.442;7.540;2024-03-23T02:55:45;11.85;;;1.67;;
42200;SDS011;27869;51.442;7.540;2024-03-23T02:58:13;10.77;;;1.33;;
42200;SDS011;27869;51.442;7.540;2024-03-23T03:00:39;9.57;;;1.40;;
42200;SDS011;27869;51.442;7.540;2024-03-23T03:03:06;9.02;;;1.40;;
42200;SDS011;27869;51.442;7.540;2024-03-23T03:05:32;8.00;;;1.30;;
42200;SDS011;27869;51.442;7.540;2024-03-23T03:07:59;9.98;;;1.75;;
42200;SDS011;27869;51.442;7.540;2024-03-23T03:10:25;9.52;;;1.50;;
42200;SDS011;27869;51.442;7.540;2024-03-23T03:12:52;6.07;;;1.05;;
42200;SDS011;27869;51.442;7.540;2024-03-23T03:15:19;9.32;;;1.10;;
42200;SDS011;27869;51.442;7.540;2024-03-23T03:17:46;6.00;;;1.20;;
42200;SDS011;27869;51.442;7.540;2024-03-23T03:20:11;11.05;;;1.30;;
42200;SDS011;27869;51.442;7.540;2024-03-23T03:22:40;9.40;;;1.17;;
42200;SDS011;27869;51.442;7.540;2024-03-23T03:25:06;10.63;;;1.67;;
42200;SDS011;27869;51.442;7.540;2024-03-23T03:27:34;10.18;;;1.33;;
42200;SDS011;27869;51.442;7.540;2024-03-23T03:29:59;10.68;;;1.52;;
42200;SDS011;27869;51.442;7.540;2024-03-23T03:32:29;12.45;;;1.92;;
42200;SDS011;27869;51.442;7.540;2024-03-23T03:34:55;10.88;;;1.40;;
42200;SDS011;27869;51.442;7.540;2024-03-23T03:37:22;8.20;;;1.30;;
42200;SDS011;27869;51.442;7.540;2024-03-23T03:39:47;12.20;;;1.40;;
42200;SDS011;27869;51.442;7.540;2024-03-23T03:42:14;9.85;;;1.50;;
42200;SDS011;27869;51.442;7.540;2024-03-23T03:44:40;9.77;;;1.30;;
42200;SDS011;27869;51.442;7.540;2024-03-23T03:47:07;9.43;;;1.50;;
42200;SDS011;27869;51.442;7.540;2024-03-23T03:49:34;9.18;;;1.23;;
42200;SDS011;27869;51.442;7.540;2024-03-23T03:52:01;10.70;;;1.77;;
42200;SDS011;27869;51.442;7.540;2024-03-23T03:54:27;10.82;;;1.40;;
42200;SDS011;27869;51.442;7.540;2024-03-23T03:56:54;13.63;;;1.45;;
42200;SDS011;27869;51.442;7.540;2024-03-23T03:59:20;8.05;;;1.30;;
42200;SDS011;27869;51.442;7.540;2024-03-23T04:01:47;12.02;;;1.50;;
42200;SDS011;27869;51.442;7.540;2024-03-23T04:04:13;13.32;;;1.40;;
42200;SDS011;27869;51.442;7.540;2024-03-23T04:06:42;9.63;;;1.17;;
42200;SDS011;27869;51.442;7.540;2024-03-23T04:09:08;8.55;;;1.25;;
42200;SDS011;27869;51.442;7.540;2024-03-23T04:11:36;14.02;;;1.40;;
42200;SDS011;27869;51.442;7.540;2024-03-23T04:14:01;12.73;;;1.50;;
42200;SDS011;27869;51.442;7.540;2024-03-23T04:16:29;10.93;;;1.55;;
42200;SDS011;27869;51.442;7.540;2024-03-23T04:19:00;16.02;;;1.58;;
42200;SDS011;27869;51.442;7.540;2024-03-23T04:21:27;9.63;;;1.30;;
42200;SDS011;27869;51.442;7.540;2024-03-23T04:23:54;14.23;;;1.52;;
42200;SDS011;27869;51.442;7.540;2024-03-23T04:26:21;11.30;;;1.95;;
42200;SDS011;27869;51.442;7.540;2024-03-23T04:28:47;10.00;;;1.50;;
42200;SDS011;27869;51.442;7.540;2024-03-23T04:31:14;9.00;;;2.10;;
42200;SDS011;27869;51.442;7.540;2024-03-23T04:33:40;8.60;;;1.15;;
42200;SDS011;27869;51.442;7.540;2024-03-23T04:36:07;10.82;;;1.67;;
42200;SDS011;27869;51.442;7.540;2024-03-23T04:38:33;9.70;;;1.55;;
42200;SDS011;27869;51.442;7.540;2024-03-23T04:41:01;10.95;;;1.65;;
42200;SDS011;27869;51.442;7.540;2024-03-23T04:43:28;13.98;;;1.65;;
42200;SDS011;27869;51.442;7.540;2024-03-23T04:45:55;10.48;;;2.00;;
42200;SDS011;27869;51.442;7.540;2024-03-23T04:48:22;13.32;;;1.48;;
42200;SDS011;27869;51.442;7.540;2024-03-23T04:50:49;8.40;;;1.33;;
42200;SDS011;27869;51.442;7.540;2024-03-23T04:53:22;10.02;;;1.30;;
42200;SDS011;27869;51.442;7.540;2024-03-23T04:55:53;13.27;;;1.70;;
42200;SDS011;27869;51.442;7.540;2024-03-23T04:58:20;10.77;;;1.45;;
42200;SDS011;27869;51.442;7.540;2024-03-23T05:00:48;13.20;;;1.60;;
42200;SDS011;27869;51.442;7.540;2024-03-23T05:03:17;10.55;;;1.73;;
42200;SDS011;27869;51.442;7.540;2024-03-23T05:05:46;10.57;;;1.48;;
42200;SDS011;27869;51.442;7.540;2024-03-23T05:08:12;15.27;;;2.28;;
42200;SDS011;27869;51.442;7.540;2024-03-23T05:10:39;8.45;;;1.40;;
42200;SDS011;27869;51.442;7.540;2024-03-23T05:13:06;11.93;;;1.70;;
42200;SDS011;27869;51.442;7.540;2024-03-23T05:15:34;16.60;;;2.05;;
42200;SDS011;27869;51.442;7.540;2024-03-23T05:18:00;15.55;;;1.80;;
42200;SDS011;27869;51.442;7.540;2024-03-23T05:20:27;12.77;;;1.83;;
42200;SDS011;27869;51.442;7.540;2024-03-23T05:22:54;12.40;;;2.58;;
42200;SDS011;27869;51.442;7.540;2024-03-23T05:25:21;12.02;;;1.80;;
42200;SDS011;27869;51.442;7.540;2024-03-23T05:27:47;10.77;;;1.95;;
42200;SDS011;27869;51.442;7.540;2024-03-23T05:30:14;12.73;;;1.95;;
42200;SDS011;27869;51.442;7.540;2024-03-23T05:32:42;14.40;;;2.20;;
42200;SDS011;27869;51.442;7.540;2024-03-23T05:35:09;13.10;;;1.92;;
42200;SDS011;27869;51.442;7.540;2024-03-23T05:37:36;12.48;;;2.08;;
42200;SDS011;27869;51.442;7.540;2024-03-23T05:40:04;17.58;;;2.58;;
42200;SDS011;27869;51.442;7.540;2024-03-23T05:42:30;15.23;;;2.53;;
42200;SDS011;27869;51.442;7.540;2024-03-23T05:44:57;12.00;;;2.42;;
42200;SDS011;27869;51.442;7.540;2024-03-23T05:47:23;15.57;;;2.22;;
42200;SDS011;27869;51.442;7.540;2024-03-23T05:49:51;11.05;;;1.98;;
42200;SDS011;27869;51.442;7.540;2024-03-23T05:52:17;15.02;;;2.30;;
42200;SDS011;27869;51.442;7.540;2024-03-23T05:54:46;16.42;;;2.63;;
42200;SDS011;27869;51.442;7.540;2024-03-23T05:57:11;12.23;;;2.10;;
42200;SDS011;27869;51.442;7.540;2024-03-23T05:59:38;9.45;;;2.13;;
42200;SDS011;27869;51.442;7.540;2024-03-23T06:02:05;15.82;;;2.42;;
42200;SDS011;27869;51.442;7.540;2024-03-23T06:04:32;16.38;;;2.42;;
42200;SDS011;27869;51.442;7.540;2024-03-23T06:06:59;15.40;;;2.40;;
42200;SDS011;27869;51.442;7.540;2024-03-23T06:09:26;13.68;;;2.40;;
42200;SDS011;27869;51.442;7.540;2024-03-23T06:11:52;15.60;;;2.35;;
42200;SDS011;27869;51.442;7.540;2024-03-23T06:14:19;14.00;;;3.03;;
42200;SDS011;27869;51.442;7.540;2024-03-23T06:16:45;12.05;;;2.47;;
42200;SDS011;27869;51.442;7.540;2024-03-23T06:19:12;10.95;;;2.40;;
42200;SDS011;27869;51.442;7.540;2024-03-23T06:21:42;11.93;;;2.40;;
42200;SDS011;27869;51.442;7.540;2024-03-23T06:24:11;14.55;;;2.97;;
42200;SDS011;27869;51.442;7.540;2024-03-23T06:26:37;15.15;;;3.45;;
42200;SDS011;27869;51.442;7.540;2024-03-23T06:29:04;13.25;;;3.10;;
42200;SDS011;27869;51.442;7.540;2024-03-23T06:31:30;13.40;;;3.33;;
42200;SDS011;27869;51.442;7.540;2024-03-23T06:33:57;18.42;;;4.38;;
42200;SDS011;27869;51.442;7.540;2024-03-23T06:36:23;16.50;;;4.43;;
42200;SDS011;27869;51.442;7.540;2024-03-23T06:38:50;15.30;;;3.80;;
42200;SDS011;27869;51.442;7.540;2024-03-23T06:41:17;20.40;;;5.30;;
42200;SDS011;27869;51.442;7.540;2024-03-23T06:43:45;18.45;;;4.82;;
42200;SDS011;27869;51.442;7.540;2024-03-23T06:46:11;15.73;;;4.50;;
42200;SDS011;27869;51.442;7.540;2024-03-23T06:48:37;20.45;;;5.25;;
42200;SDS011;27869;51.442;7.540;2024-03-23T06:51:03;19.77;;;6.57;;
42200;SDS011;27869;51.442;7.540;2024-03-23T06:53:31;20.77;;;5.93;;
42200;SDS011;27869;51.442;7.540;2024-03-23T06:55:57;18.83;;;6.30;;
42200;SDS011;27869;51.442;7.540;2024-03-23T06:58:27;16.67;;;6.55;;
42200;SDS011;27869;51.442;7.540;2024-03-23T07:00:53;21.52;;;7.25;;
42200;SDS011;27869;51.442;7.540;2024-03-23T07:03:20;21.73;;;7.47;;
42200;SDS011;27869;51.442;7.540;2024-03-23T07:05:46;21.67;;;7.13;;
42200;SDS011;27869;51.442;7.540;2024-03-23T07:08:13;17.80;;;7.25;;
42200;SDS011;27869;51.442;7.540;2024-03-23T07:10:46;22.35;;;8.15;;
42200;SDS011;27869;51.442;7.540;2024-03-23T07:13:13;20.25;;;7.97;;
42200;SDS011;27869;51.442;7.540;2024-03-23T07:15:40;16.52;;;7.18;;
42200;SDS011;27869;51.442;7.540;2024-03-23T07:18:07;19.38;;;5.90;;
42200;SDS011;27869;51.442;7.540;2024-03-23T07:20:33;25.45;;;7.97;;
42200;SDS011;27869;51.442;7.540;2024-03-23T07:23:00;20.27;;;7.90;;
42200;SDS011;27869;51.442;7.540;2024-03-23T07:25:26;24.70;;;8.07;;
42200;SDS011;27869;51.442;7.540;2024-03-23T07:27:54;21.27;;;7.97;;
42200;SDS011;27869;51.442;7.540;2024-03-23T07:30:20;22.15;;;8.85;;
42200;SDS011;27869;51.442;7.540;2024-03-23T07:32:48;21.70;;;8.40;;
42200;SDS011;27869;51.442;7.540;2024-03-23T07:35:14;23.45;;;7.82;;
42200;SDS011;27869;51.442;7.540;2024-03-23T07:37:41;22.50;;;9.07;;
42200;SDS011;27869;51.442;7.540;2024-03-23T07:40:07;22.83;;;9.52;;
42200;SDS011;27869;51.442;7.540;2024-03-23T07:42:35;21.05;;;8.98;;
42200;SDS011;27869;51.442;7.540;2024-03-23T07:45:01;22.25;;;8.52;;
42200;SDS011;27869;51.442;7.540;2024-03-23T07:47:28;21.83;;;8.15;;
42200;SDS011;27869;51.442;7.540;2024-03-23T07:49:55;21.25;;;8.65;;
42200;SDS011;27869;51.442;7.540;2024-03-23T07:52:22;21.35;;;8.32;;
42200;SDS011;27869;51.442;7.540;2024-03-23T07:54:48;24.20;;;8.90;;
42200;SDS011;27869;51.442;7.540;2024-03-23T07:57:18;21.80;;;9.13;;
42200;SDS011;27869;51.442;7.540;2024-03-23T07:59:44;22.77;;;8.85;;
42200;SDS011;27869;51.442;7.540;2024-03-23T08:02:11;23.77;;;8.50;;
42200;SDS011;27869;51.442;7.540;2024-03-23T08:04:37;21.08;;;8.25;;
42200;SDS011;27869;51.442;7.540;2024-03-23T08:07:05;23.05;;;8.32;;
42200;SDS011;27869;51.442;7.540;2024-03-23T08:09:31;21.65;;;8.00;;
42200;SDS011;27869;51.442;7.540;2024-03-23T08:11:58;18.58;;;7.75;;
42200;SDS011;27869;51.442;7.540;2024-03-23T08:14:24;18.95;;;7.43;;
42200;SDS011;27869;51.442;7.540;2024-03-23T08:16:51;21.30;;;7.80;;
42200;SDS011;27869;51.442;7.540;2024-03-23T08:19:17;22.20;;;7.57;;
42200;SDS011;27869;51.442;7.540;2024-03-23T08:21:43;20.92;;;7.82;;
42200;SDS011;27869;51.442;7.540;2024-03-23T08:24:11;18.58;;;6.50;;
42200;SDS011;27869;51.442;7.540;2024-03-23T08:26:38;19.08;;;6.15;;
42200;SDS011;27869;51.442;7.540;2024-03-23T08:29:05;17.00;;;5.13;;
42200;SDS011;27869;51.442;7.540;2024-03-23T08:31:32;18.52;;;5.75;;
42200;SDS011;27869;51.442;7.540;2024-03-23T08:33:58;16.98;;;5.30;;
42200;SDS011;27869;51.442;7.540;2024-03-23T08:36:25;16.95;;;4.97;;
42200;SDS011;27869;51.442;7.540;2024-03-23T08:38:51;14.65;;;4.63;;
42200;SDS011;27869;51.442;7.540;2024-03-23T08:41:20;19.70;;;5.00;;
42200;SDS011;27869;51.442;7.540;2024-03-23T08:43:46;15.07;;;4.40;;
42200;SDS011;27869;51.442;7.540;2024-03-23T08:46:13;15.38;;;3.67;;
42200;SDS011;27869;51.442;7.540;2024-03-23T08:48:41;20.42;;;4.20;;
42200;SDS011;27869;51.442;7.540;2024-03-23T08:51:09;18.15;;;4.35;;
42200;SDS011;27869;51.442;7.540;2024-03-23T08:53:36;16.42;;;3.80;;
42200;SDS011;27869;51.442;7.540;2024-03-23T08:56:04;19.38;;;3.70;;
42200;SDS011;27869;51.442;7.540;2024-03-23T08:58:32;15.20;;;3.85;;
42200;SDS011;27869;51.442;7.540;2024-03-23T09:01:02;16.88;;;3.28;;
42200;SDS011;27869;51.442;7.540;2024-03-23T09:03:29;16.25;;;3.90;;
42200;SDS011;27869;51.442;7.540;2024-03-23T09:05:57;22.38;;;3.80;;
42200;SDS011;27869;51.442;7.540;2024-03-23T09:08:23;15.88;;;3.50;;
42200;SDS011;27869;51.442;7.540;2024-03-23T09:10:51;13.40;;;3.10;;
42200;SDS011;27869;51.442;7.540;2024-03-23T09:13:17;15.18;;;3.38;;
42200;SDS011;27869;51.442;7.540;2024-03-23T09:15:49;15.02;;;3.30;;
42200;SDS011;27869;51.442;7.540;2024-03-23T09:18:16;17.40;;;3.10;;
42200;SDS011;27869;51.442;7.540;2024-03-23T09:20:43;13.63;;;3.15;;
42200;SDS011;27869;51.442;7.540;2024-03-23T09:23:09;14.02;;;2.72;;
42200;SDS011;27869;51.442;7.540;2024-03-23T09:25:36;11.35;;;2.60;;
42200;SDS011;27869;51.442;7.540;2024-03-23T09:28:03;16.83;;;3.00;;
42200;SDS011;27869;51.442;7.540;2024-03-23T09:30:31;12.25;;;2.60;;
42200;SDS011;27869;51.442;7.540;2024-03-23T09:32:59;15.30;;;2.88;;
42200;SDS011;27869;51.442;7.540;2024-03-23T09:35:27;13.55;;;3.15;;
42200;SDS011;27869;51.442;7.540;2024-03-23T09:37:53;17.85;;;3.25;;
42200;SDS011;27869;51.442;7.540;2024-03-23T09:40:20;10.80;;;2.08;;
42200;SDS011;27869;51.442;7.540;2024-03-23T09:42:49;9.93;;;1.83;;
42200;SDS011;27869;51.442;7.540;2024-03-23T09:45:17;13.05;;;2.13;;
42200;SDS011;27869;51.442;7.540;2024-03-23T09:47:46;9.75;;;1.65;;
42200;SDS011;27869;51.442;7.540;2024-03-23T09:50:15;6.60;;;1.27;;
42200;SDS011;27869;51.442;7.540;2024-03-23T09:52:41;8.02;;;1.42;;
42200;SDS011;27869;51.442;7.540;2024-03-23T09:55:08;7.55;;;1.27;;
42200;SDS011;27869;51.442;7.540;2024-03-23T09:57:34;6.57;;;1.20;;
42200;SDS011;27869;51.442;7.540;2024-03-23T10:00:01;10.90;;;1.50;;
42200;SDS011;27869;51.442;7.540;2024-03-23T10:02:28;10.55;;;1.70;;
42200;SDS011;27869;51.442;7.540;2024-03-23T10:04:55;8.75;;;1.58;;
42200;SDS011;27869;51.442;7.540;2024-03-23T10:07:24;9.18;;;1.70;;
42200;SDS011;27869;51.442;7.540;2024-03-23T10:09:53;7.93;;;1.80;;
42200;SDS011;27869;51.442;7.540;2024-03-23T10:12:19;11.40;;;2.00;;
42200;SDS011;27869;51.442;7.540;2024-03-23T10:14:46;12.63;;;2.15;;
42200;SDS011;27869;51.442;7.540;2024-03-23T10:17:13;13.27;;;2.28;;
42200;SDS011;27869;51.442;7.540;2024-03-23T10:19:42;11.02;;;2.42;;
42200;SDS011;27869;51.442;7.540;2024-03-23T10:22:09;12.00;;;2.63;;
42200;SDS011;27869;51.442;7.540;2024-03-23T10:24:40;9.40;;;2.33;;
42200;SDS011;27869;51.442;7.540;2024-03-23T10:27:07;15.05;;;2.58;;
42200;SDS011;27869;51.442;7.540;2024-03-23T10:29:33;13.00;;;2.78;;
42200;SDS011;27869;51.442;7.540;2024-03-23T10:32:09;12.05;;;2.80;;
42200;SDS011;27869;51.442;7.540;2024-03-23T10:34:36;11.73;;;2.40;;
42200;SDS011;27869;51.442;7.540;2024-03-23T10:37:03;9.52;;;2.10;;
42200;SDS011;27869;51.442;7.540;2024-03-23T10:39:31;9.77;;;2.08;;
42200;SDS011;27869;51.442;7.540;2024-03-23T10:42:00;12.43;;;2.55;;
42200;SDS011;27869;51.442;7.540;2024-03-23T10:44:28;9.05;;;2.05;;
42200;SDS011;27869;51.442;7.540;2024-03-23T10:46:56;13.75;;;2.10;;
42200;SDS011;27869;51.442;7.540;2024-03-23T10:49:26;11.20;;;2.17;;
42200;SDS011;27869;51.442;7.540;2024-03-23T10:51:54;9.85;;;2.10;;
42200;SDS011;27869;51.442;7.540;2024-03-23T10:54:23;9.80;;;2.00;;
42200;SDS011;27869;51.442;7.540;2024-03-23T10:56:50;13.48;;;2.20;;
42200;SDS011;27869;51.442;7.540;2024-03-23T10:59:24;7.43;;;1.88;;
42200;SDS011;27869;51.442;7.540;2024-03-23T11:01:54;13.38;;;2.33;;
42200;SDS011;27869;51.442;7.540;2024-03-23T11:04:31;9.32;;;2.20;;
42200;SDS011;27869;51.442;7.540;2024-03-23T11:06:58;12.75;;;2.00;;
42200;SDS011;27869;51.442;7.540;2024-03-23T11:09:43;8.18;;;2.00;;
42200;SDS011;27869;51.442;7.540;2024-03-23T11:12:26;11.50;;;1.80;;
42200;SDS011;27869;51.442;7.540;2024-03-23T11:14:59;14.40;;;2.15;;
42200;SDS011;27869;51.442;7.540;2024-03-23T11:17:27;8.70;;;1.80;;
42200;SDS011;27869;51.442;7.540;2024-03-23T11:19:55;13.80;;;2.17;;
42200;SDS011;27869;51.442;7.540;2024-03-23T11:22:37;12.00;;;2.35;;
42200;SDS011;27869;51.442;7.540;2024-03-23T11:25:12;4.00;;;0.88;;
42200;SDS011;27869;51.442;7.540;2024-03-23T11:27:41;2.85;;;0.82;;
42200;SDS011;27869;51.442;7.540;2024-03-23T11:30:11;1.73;;;0.32;;
42200;SDS011;27869;51.442;7.540;2024-03-23T11:32:39;2.13;;;0.55;;
42200;SDS011;27869;51.442;7.540;2024-03-23T11:35:06;1.90;;;0.40;;
42200;SDS011;27869;51.442;7.540;2024-03-23T11:37:32;4.10;;;0.52;;
42200;SDS011;27869;51.442;7.540;2024-03-23T11:39:59;3.38;;;0.57;;
42200;SDS011;27869;51.442;7.540;2024-03-23T11:42:26;4.65;;;1.13;;
42200;SDS011;27869;51.442;7.540;2024-03-23T11:44:53;2.83;;;0.68;;
42200;SDS011;27869;51.442;7.540;2024-03-23T11:47:20;2.58;;;0.57;;
42200;SDS011;27869;51.442;7.540;2024-03-23T11:49:48;6.53;;;1.40;;
42200;SDS011;27869;51.442;7.540;2024-03-23T11:52:14;4.07;;;0.60;;
42200;SDS011;27869;51.442;7.540;2024-03-23T11:54:42;4.85;;;0.88;;
42200;SDS011;27869;51.442;7.540;2024-03-23T11:57:08;6.40;;;1.10;;
42200;SDS011;27869;51.442;7.540;2024-03-23T11:59:36;3.17;;;0.60;;
42200;SDS011;27869;51.442;7.540;2024-03-23T12:02:06;5.43;;;0.85;;
42200;SDS011;27869;51.442;7.540;2024-03-23T12:04:35;3.70;;;1.00;;
42200;SDS011;27869;51.442;7.540;2024-03-23T12:07:11;6.22;;;2.00;;
42200;SDS011;27869;51.442;7.540;2024-03-23T12:09:39;8.40;;;0.90;;
42200;SDS011;27869;51.442;7.540;2024-03-23T12:12:06;5.47;;;0.90;;
42200;SDS011;27869;51.442;7.540;2024-03-23T12:17:07;4.30;;;1.00;;
42200;SDS011;27869;51.442;7.540;2024-03-23T12:19:38;8.18;;;1.20;;
42200;SDS011;27869;51.442;7.540;2024-03-23T12:22:06;7.88;;;1.40;;
42200;SDS011;27869;51.442;7.540;2024-03-23T12:24:34;7.80;;;0.93;;
42200;SDS011;27869;51.442;7.540;2024-03-23T12:27:00;6.90;;;1.02;;
42200;SDS011;27869;51.442;7.540;2024-03-23T12:29:28;8.27;;;1.35;;
42200;SDS011;27869;51.442;7.540;2024-03-23T12:31:54;5.88;;;1.10;;
42200;SDS011;27869;51.442;7.540;2024-03-23T12:34:22;5.70;;;1.27;;
42200;SDS011;27869;51.442;7.540;2024-03-23T12:36:49;8.35;;;1.42;;
42200;SDS011;27869;51.442;7.540;2024-03-23T12:39:16;4.90;;;1.10;;
42200;SDS011;27869;51.442;7.540;2024-03-23T12:41:42;7.57;;;1.33;;
42200;SDS011;27869;51.442;7.540;2024-03-23T12:44:09;6.68;;;1.40;;
42200;SDS011;27869;51.442;7.540;2024-03-23T12:46:36;6.13;;;1.17;;
42200;SDS011;27869;51.442;7.540;2024-03-23T12:49:03;5.80;;;1.20;;
42200;SDS011;27869;51.442;7.540;2024-03-23T12:51:30;7.88;;;1.55;;
42200;SDS011;27869;51.442;7.540;2024-03-23T12:53:58;5.28;;;1.15;;
42200;SDS011;27869;51.442;7.540;2024-03-23T12:56:24;5.55;;;1.30;;
42200;SDS011;27869;51.442;7.540;2024-03-23T12:58:53;4.68;;;1.13;;
42200;SDS011;27869;51.442;7.540;2024-03-23T13:01:20;7.05;;;1.17;;
42200;SDS011;27869;51.442;7.540;2024-03-23T13:03:47;5.70;;;0.93;;
42200;SDS011;27869;51.442;7.540;2024-03-23T13:06:14;8.45;;;1.15;;
42200;SDS011;27869;51.442;7.540;2024-03-23T13:08:40;3.30;;;0.65;;
42200;SDS011;27869;51.442;7.540;2024-03-23T13:11:09;6.78;;;1.15;;
42200;SDS011;27869;51.442;7.540;2024-03-23T13:13:36;9.80;;;2.25;;
42200;SDS011;27869;51.442;7.540;2024-03-23T13:16:02;8.48;;;1.30;;
42200;SDS011;27869;51.442;7.540;2024-03-23T13:18:30;4.78;;;1.15;;
42200;SDS011;27869;51.442;7.540;2024-03-23T13:20:57;5.68;;;1.00;;
42200;SDS011;27869;51.442;7.540;2024-03-23T13:23:24;4.85;;;0.90;;
42200;SDS011;27869;51.442;7.540;2024-03-23T13:25:50;4.38;;;1.10;;
42200;SDS011;27869;51.442;7.540;2024-03-23T13:28:19;5.13;;;1.30;;
42200;SDS011;27869;51.442;7.540;2024-03-23T13:30:51;9.20;;;1.40;;
42200;SDS011;27869;51.442;7.540;2024-03-23T13:33:18;8.45;;;1.50;;
42200;SDS011;27869;51.442;7.540;2024-03-23T13:35:51;7.85;;;1.40;;
42200;SDS011;27869;51.442;7.540;2024-03-23T13:38:18;3.60;;;1.00;;
42200;SDS011;27869;51.442;7.540;2024-03-23T13:40:51;5.55;;;1.30;;
42200;SDS011;27869;51.442;7.540;2024-03-23T13:43:20;6.50;;;0.95;;
42200;SDS011;27869;51.442;7.540;2024-03-23T13:45:46;5.47;;;1.30;;
42200;SDS011;27869;51.442;7.540;2024-03-23T13:48:15;3.97;;;0.80;;
42200;SDS011;27869;51.442;7.540;2024-03-23T13:50:41;5.57;;;0.80;;
42200;SDS011;27869;51.442;7.540;2024-03-23T13:53:08;7.03;;;1.02;;
42200;SDS011;27869;51.442;7.540;2024-03-23T13:55:34;6.70;;;1.20;;
42200;SDS011;27869;51.442;7.540;2024-03-23T13:58:02;7.03;;;0.95;;
42200;SDS011;27869;51.442;7.540;2024-03-23T14:00:29;6.70;;;1.00;;
42200;SDS011;27869;51.442;7.540;2024-03-23T14:02:57;8.43;;;0.95;;
42200;SDS011;27869;51.442;7.540;2024-03-23T14:05:23;6.35;;;1.00;;
42200;SDS011;27869;51.442;7.540;2024-03-23T14:07:50;8.98;;;1.35;;
42200;SDS011;27869;51.442;7.540;2024-03-23T14:10:16;5.63;;;0.85;;
42200;SDS011;27869;51.442;7.540;2024-03-23T14:12:43;4.85;;;0.85;;
42200;SDS011;27869;51.442;7.540;2024-03-23T14:15:09;2.70;;;0.80;;
42200;SDS011;27869;51.442;7.540;2024-03-23T14:17:37;4.70;;;1.00;;
42200;SDS011;27869;51.442;7.540;2024-03-23T14:20:04;7.72;;;1.05;;
42200;SDS011;27869;51.442;7.540;2024-03-23T14:22:34;8.05;;;1.20;;
42200;SDS011;27869;51.442;7.540;2024-03-23T14:25:00;7.20;;;0.90;;
42200;SDS011;27869;51.442;7.540;2024-03-23T14:27:27;4.28;;;1.05;;
42200;SDS011;27869;51.442;7.540;2024-03-23T14:29:53;8.40;;;1.13;;
42200;SDS011;27869;51.442;7.540;2024-03-23T14:32:21;7.97;;;1.33;;
42200;SDS011;27869;51.442;7.540;2024-03-23T14:34:49;3.28;;;1.00;;
42200;SDS011;27869;51.442;7.540;2024-03-23T14:37:17;7.38;;;1.30;;
42200;SDS011;27869;51.442;7.540;2024-03-23T14:39:43;4.68;;;0.98;;
42200;SDS011;27869;51.442;7.540;2024-03-23T14:42:10;14.48;;;1.75;;
42200;SDS011;27869;51.442;7.540;2024-03-23T14:44:36;6.82;;;1.10;;
42200;SDS011;27869;51.442;7.540;2024-03-23T14:47:04;7.38;;;0.85;;
42200;SDS011;27869;51.442;7.540;2024-03-23T14:49:30;8.13;;;1.40;;
42200;SDS011;27869;51.442;7.540;2024-03-23T14:51:59;11.68;;;1.20;;
42200;SDS011;27869;51.442;7.540;2024-03-23T14:54:25;10.45;;;1.30;;
42200;SDS011;27869;51.442;7.540;2024-03-23T14:56:52;10.38;;;1.45;;
42200;SDS011;27869;51.442;7.540;2024-03-23T14:59:18;7.50;;;1.25;;
42200;SDS011;27869;51.442;7.540;2024-03-23T15:01:45;4.13;;;0.90;;
42200;SDS011;27869;51.442;7.540;2024-03-23T15:04:11;6.18;;;1.20;;
42200;SDS011;27869;51.442;7.540;2024-03-23T15:06:38;6.53;;;1.48;;
42200;SDS011;27869;51.442;7.540;2024-03-23T15:09:09;7.43;;;1.05;;
42200;SDS011;27869;51.442;7.540;2024-03-23T15:11:36;7.93;;;1.33;;
42200;SDS011;27869;51.442;7.540;2024-03-23T15:14:02;7.90;;;1.20;;
42200;SDS011;27869;51.442;7.540;2024-03-23T15:16:30;6.72;;;0.88;;
42200;SDS011;27869;51.442;7.540;2024-03-23T15:18:55;7.13;;;0.95;;
42200;SDS011;27869;51.442;7.540;2024-03-23T15:21:22;8.88;;;1.10;;
42200;SDS011;27869;51.442;7.540;2024-03-23T15:23:48;8.93;;;0.85;;
42200;SDS011;27869;51.442;7.540;2024-03-23T15:26:17;6.65;;;0.80;;
42200;SDS011;27869;51.442;7.540;2024-03-23T15:28:42;6.55;;;0.80;;
42200;SDS011;27869;51.442;7.540;2024-03-23T15:31:32;4.85;;;0.75;;
42200;SDS011;27869;51.442;7.540;2024-03-23T15:33:58;7.78;;;0.88;;
42200;SDS011;27869;51.442;7.540;2024-03-23T15:36:25;5.53;;;1.25;;
42200;SDS011;27869;51.442;7.540;2024-03-23T15:38:51;5.30;;;1.00;;
42200;SDS011;27869;51.442;7.540;2024-03-23T15:41:21;6.60;;;1.05;;
42200;SDS011;27869;51.442;7.540;2024-03-23T15:43:48;9.02;;;1.55;;